Time;durP1;ratioP1;P1;durP2;ratioP2;P2;SDS_P1;SDS_P2;PMS_P1;PMS_P2;Temp;Humidity;BMP_temperature;BMP_pressure;BME280_temperature;BME280_humidity;BME280_pressure;Samples;Min_cycle;Max_cycle;Signal;HPM_P1;HPM_P2
2021/10/14 00:01:53;;;;;;;1.65;1.02;;;17.40;71.00;;;;;;10496953;28;20097;-48
2021/10/14 00:06:54;;;;;;;1.88;1.08;;;17.50;70.70;;;;;;10496538;28;20111;-49
2021/10/14 00:11:54;;;;;;;3.58;1.40;;;17.50;70.50;;;;;;10495220;28;20127;-49
2021/10/14 00:16:56;;;;;;;2.97;1.42;;;17.60;70.40;;;;;;10496239;28;20112;-48
2021/10/14 00:21:57;;;;;;;3.22;1.70;;;17.60;70.40;;;;;;10496184;28;20028;-48
2021/10/14 00:26:58;;;;;;;3.78;1.08;;;17.50;70.50;;;;;;10494855;28;20256;-47
2021/10/14 00:31:59;;;;;;;2.97;1.33;;;17.50;70.60;;;;;;10496079;28;20473;-48
2021/10/14 00:36:59;;;;;;;1.73;1.08;;;17.50;70.70;;;;;;10499158;28;20049;-48
2021/10/14 00:42:00;;;;;;;2.60;1.50;;;17.50;70.70;;;;;;10503055;28;20355;-47
2021/10/14 00:47:01;;;;;;;3.13;1.42;;;17.50;70.70;;;;;;10503895;28;20504;-53
2021/10/14 00:52:01;;;;;;;1.90;1.10;;;17.50;70.80;;;;;;10503728;28;20119;-49
2021/10/14 00:57:02;;;;;;;2.95;1.48;;;17.40;70.80;;;;;;10503932;28;20111;-51
2021/10/14 01:02:03;;;;;;;3.80;1.55;;;17.40;70.80;;;;;;10503324;28;20032;-49
2021/10/14 01:07:04;;;;;;;3.17;1.40;;;17.40;70.90;;;;;;10503220;28;20025;-46
2021/10/14 01:12:06;;;;;;;2.28;1.20;;;17.40;70.90;;;;;;10501863;28;20044;-49
2021/10/14 01:17:06;;;;;;;2.88;1.40;;;17.40;70.90;;;;;;10502417;28;20044;-49
2021/10/14 01:22:07;;;;;;;2.60;1.20;;;17.40;71.00;;;;;;10502338;28;20491;-48
2021/10/14 01:27:09;;;;;;;3.38;1.55;;;17.40;70.90;;;;;;10501365;28;20499;-47
2021/10/14 01:32:10;;;;;;;3.50;1.17;;;17.50;70.80;;;;;;10502372;28;20078;-49
2021/10/14 01:37:10;;;;;;;1.80;1.10;;;17.50;70.60;;;;;;10501046;28;20131;-48
2021/10/14 01:42:11;;;;;;;3.65;1.63;;;17.50;70.60;;;;;;10502015;28;20027;-47
2021/10/14 01:47:12;;;;;;;2.70;1.55;;;17.50;70.70;;;;;;10501851;28;20103;-48
2021/10/14 01:52:12;;;;;;;2.67;1.48;;;17.40;70.70;;;;;;10501646;28;20032;-50
2021/10/14 01:57:13;;;;;;;3.15;1.52;;;17.40;70.80;;;;;;10495376;28;20064;-49
2021/10/14 02:02:14;;;;;;;2.55;1.45;;;17.40;70.80;;;;;;10499988;28;20032;-49
2021/10/14 02:07:14;;;;;;;5.07;1.90;;;17.40;70.90;;;;;;10501107;28;20111;-49
2021/10/14 02:12:15;;;;;;;3.72;1.77;;;17.40;70.90;;;;;;10485978;28;20050;-48
2021/10/14 02:17:16;;;;;;;3.55;1.70;;;17.50;70.70;;;;;;10500386;28;20060;-47
2021/10/14 02:22:16;;;;;;;3.03;1.77;;;17.50;70.50;;;;;;10500537;28;20104;-48
2021/10/14 02:27:17;;;;;;;3.15;1.83;;;17.50;70.40;;;;;;10500082;28;20068;-49
2021/10/14 02:32:18;;;;;;;3.58;1.90;;;17.50;70.40;;;;;;10500228;28;20361;-48
2021/10/14 02:37:18;;;;;;;3.80;2.10;;;17.50;70.60;;;;;;10498180;28;20053;-47
2021/10/14 02:42:20;;;;;;;3.63;2.00;;;17.50;70.70;;;;;;10499505;28;20441;-47
2021/10/14 02:47:20;;;;;;;2.67;1.60;;;17.40;70.80;;;;;;10497797;28;20113;-47
2021/10/14 02:52:21;;;;;;;4.47;2.65;;;17.40;70.90;;;;;;10500454;28;20115;-53
2021/10/14 02:57:22;;;;;;;4.45;2.38;;;17.40;71.00;;;;;;10498716;28;20162;-51
2021/10/14 03:02:22;;;;;;;4.70;2.72;;;17.40;70.80;;;;;;10496727;28;20114;-51
2021/10/14 03:07:23;;;;;;;3.60;2.53;;;17.40;70.80;;;;;;10498463;28;20066;-50
2021/10/14 03:12:24;;;;;;;4.72;3.55;;;17.40;70.80;;;;;;10498198;28;20056;-48
2021/10/14 03:17:24;;;;;;;5.68;2.35;;;17.40;70.80;;;;;;10496655;28;20115;-49
2021/10/14 03:22:25;;;;;;;3.22;1.92;;;17.40;70.80;;;;;;10498002;28;20496;-48
2021/10/14 03:27:26;;;;;;;4.63;2.95;;;17.40;70.90;;;;;;10497608;28;20029;-48
2021/10/14 03:32:27;;;;;;;3.97;2.63;;;17.40;71.00;;;;;;10496618;28;20496;-47
2021/10/14 03:37:27;;;;;;;5.15;2.35;;;17.40;70.80;;;;;;10495422;28;20040;-48
2021/10/14 03:42:28;;;;;;;8.93;3.08;;;17.50;70.50;;;;;;10497272;28;20056;-47
2021/10/14 03:47:28;;;;;;;5.47;2.55;;;17.60;70.40;;;;;;10495953;28;20166;-48
2021/10/14 03:52:29;;;;;;;3.33;2.25;;;17.60;70.50;;;;;;10499475;28;20068;-48
2021/10/14 03:57:30;;;;;;;4.18;2.10;;;17.50;70.50;;;;;;10496695;28;20056;-51
2021/10/14 04:02:30;;;;;;;6.57;3.10;;;17.50;70.60;;;;;;10496390;28;20025;-49
2021/10/14 04:07:31;;;;;;;3.67;2.67;;;17.50;70.70;;;;;;10496380;28;20078;-49
2021/10/14 04:12:32;;;;;;;4.57;2.50;;;17.40;70.80;;;;;;10468428;28;20032;-49
2021/10/14 04:17:34;;;;;;;4.53;2.63;;;17.40;70.90;;;;;;10495534;28;20040;-48
2021/10/14 04:22:35;;;;;;;4.45;2.83;;;17.40;71.00;;;;;;10496655;28;20074;-48
2021/10/14 04:27:35;;;;;;;3.95;2.20;;;17.50;70.70;;;;;;10496162;28;20029;-48
2021/10/14 04:32:36;;;;;;;5.88;3.10;;;17.50;70.60;;;;;;10496374;28;20103;-48
2021/10/14 04:37:41;;;;;;;4.60;2.58;;;17.50;70.60;;;;;;10494613;28;20094;-46
2021/10/14 04:42:42;;;;;;;3.80;2.47;;;17.60;70.50;;;;;;10495920;28;20074;-48
2021/10/14 04:47:43;;;;;;;5.53;2.58;;;17.70;70.20;;;;;;10495646;28;20036;-47
2021/10/14 04:52:44;;;;;;;6.20;2.72;;;17.70;70.20;;;;;;10497581;28;20115;-47
2021/10/14 04:57:45;;;;;;;4.18;2.47;;;17.70;70.20;;;;;;10495379;28;20033;-47
2021/10/14 05:02:45;;;;;;;4.55;3.25;;;17.80;69.90;;;;;;10495814;28;20086;-50
2021/10/14 05:07:46;;;;;;;4.57;2.85;;;18.10;69.10;;;;;;10494229;28;20055;-50
2021/10/14 05:12:47;;;;;;;4.18;2.88;;;18.30;68.50;;;;;;10488292;28;20032;-48
2021/10/14 05:17:48;;;;;;;5.05;2.83;;;18.50;68.50;;;;;;10495196;28;20422;-49
2021/10/14 05:22:48;;;;;;;5.75;3.15;;;18.60;68.90;;;;;;10495930;28;20123;-53
2021/10/14 05:27:49;;;;;;;7.28;3.30;;;18.60;70.30;;;;;;10502593;28;20116;-48
2021/10/14 05:32:50;;;;;;;5.80;3.40;;;18.60;70.10;;;;;;10500236;28;20394;-47
2021/10/14 05:37:51;;;;;;;8.27;2.97;;;18.70;70.40;;;;;;10499824;28;20185;-58
2021/10/14 05:42:51;;;;;;;11.48;3.47;;;18.60;70.60;;;;;;10500688;28;20115;-51
2021/10/14 05:47:52;;;;;;;9.90;3.67;;;18.70;70.50;;;;;;10501525;28;20129;-54
2021/10/14 05:52:53;;;;;;;11.32;3.63;;;18.70;70.60;;;;;;10502960;28;20070;-54
2021/10/14 05:57:53;;;;;;;10.07;3.50;;;18.60;70.90;;;;;;10499463;28;20225;-54
2021/10/14 06:02:54;;;;;;;13.43;3.72;;;18.60;70.70;;;;;;10494065;28;20056;-52
2021/10/14 06:07:54;;;;;;;9.90;3.55;;;18.60;70.40;;;;;;10498871;28;20028;-52
2021/10/14 06:12:55;;;;;;;8.70;4.00;;;18.60;70.30;;;;;;10497568;28;20504;-49
2021/10/14 06:17:56;;;;;;;11.32;3.63;;;18.60;70.70;;;;;;10499202;28;20115;-50
2021/10/14 06:22:57;;;;;;;9.85;4.13;;;18.50;71.40;;;;;;10481715;28;20070;-49
2021/10/14 06:27:57;;;;;;;9.70;4.28;;;18.30;71.30;;;;;;10498664;28;20059;-53
2021/10/14 06:32:59;;;;;;;9.57;3.88;;;18.20;71.30;;;;;;10497441;28;20124;-53
2021/10/14 06:38:00;;;;;;;11.00;3.97;;;18.20;71.60;;;;;;10466381;28;20477;-54
2021/10/14 06:43:00;;;;;;;10.18;3.90;;;18.10;71.70;;;;;;10496687;28;20111;-53
2021/10/14 06:48:01;;;;;;;9.15;3.92;;;18.20;71.80;;;;;;10497071;28;20024;-51
2021/10/14 06:53:08;;;;;;;7.00;4.00;;;18.20;71.50;;;;;;10502238;28;20123;-54
2021/10/14 06:58:09;;;;;;;7.57;4.00;;;18.20;71.60;;;;;;10497260;28;20024;-53
2021/10/14 07:03:09;;;;;;;6.22;3.63;;;18.30;71.40;;;;;;10493922;28;20068;-52
2021/10/14 07:08:10;;;;;;;10.20;4.10;;;18.40;71.20;;;;;;10493317;28;20108;-53
2021/10/14 07:13:11;;;;;;;7.35;3.80;;;18.30;71.20;;;;;;10503211;28;20060;-53
2021/10/14 07:18:12;;;;;;;7.32;3.85;;;18.30;71.40;;;;;;10495684;28;20040;-54
2021/10/14 07:23:14;;;;;;;11.90;5.57;;;18.30;71.60;;;;;;10497930;28;20552;-54
2021/10/14 07:28:15;;;;;;;9.20;3.97;;;18.20;71.70;;;;;;10495506;28;20048;-51
2021/10/14 07:33:16;;;;;;;7.97;4.45;;;18.20;71.40;;;;;;10493047;28;20161;-54
2021/10/14 07:38:17;;;;;;;7.80;4.53;;;18.30;71.40;;;;;;10496187;28;20041;-53
2021/10/14 07:43:18;;;;;;;11.35;4.10;;;18.30;71.60;;;;;;10496790;28;20111;-53
2021/10/14 07:48:18;;;;;;;6.95;4.05;;;18.20;71.70;;;;;;10497971;28;20038;-54
2021/10/14 07:53:20;;;;;;;7.80;4.45;;;18.10;71.70;;;;;;10494346;28;20375;-55
2021/10/14 07:58:21;;;;;;;6.78;4.03;;;18.10;71.70;;;;;;10496230;28;20036;-55
2021/10/14 08:03:21;;;;;;;10.55;4.28;;;18.20;71.40;;;;;;10495811;28;20408;-56
2021/10/14 08:08:22;;;;;;;9.18;4.10;;;18.20;71.30;;;;;;10493792;28;20032;-55
2021/10/14 08:13:23;;;;;;;6.60;4.40;;;18.10;71.30;;;;;;10492458;28;20071;-55
2021/10/14 08:18:24;;;;;;;7.93;4.30;;;18.20;71.20;;;;;;10493534;28;20024;-53
2021/10/14 08:23:26;;;;;;;6.38;3.78;;;18.30;71.00;;;;;;10495029;28;20107;-55
2021/10/14 08:28:27;;;;;;;7.03;4.72;;;18.20;71.00;;;;;;10496247;28;20032;-55
2021/10/14 08:33:29;;;;;;;9.45;3.78;;;18.20;71.00;;;;;;10496425;28;20040;-54
2021/10/14 08:38:30;;;;;;;9.32;4.32;;;18.30;70.90;;;;;;10492804;28;20053;-55
2021/10/14 08:43:34;;;;;;;7.18;4.20;;;18.30;70.90;;;;;;10495859;28;20495;-54
2021/10/14 08:48:36;;;;;;;5.70;4.00;;;18.30;71.00;;;;;;10498133;28;20028;-55
2021/10/14 08:53:37;;;;;;;10.52;4.03;;;18.30;70.90;;;;;;10492045;28;20025;-56
2021/10/14 08:58:38;;;;;;;10.32;3.67;;;18.30;70.90;;;;;;10496975;28;20369;-55
2021/10/14 09:03:49;;;;;;;8.32;4.00;;;18.30;71.00;;;;;;10501252;28;20031;-56
2021/10/14 09:08:52;;;;;;;9.02;3.63;;;18.20;71.20;;;;;;10503166;28;20082;-56
2021/10/14 09:13:56;;;;;;;5.47;3.65;;;18.20;71.30;;;;;;10503157;28;20104;-55
2021/10/14 09:19:20;;;;;;;8.27;3.72;;;18.10;71.50;;;;;;10502797;28;20461;-56
2021/10/14 09:24:50;;;;;;;7.32;3.85;;;18.10;71.60;;;;;;10501491;28;20032;-55
2021/10/14 09:29:50;;;;;;;8.60;4.13;;;18.10;71.70;;;;;;10497176;28;20044;-55
2021/10/14 09:34:51;;;;;;;10.02;3.75;;;18.10;71.70;;;;;;10502460;28;20807;-55
2021/10/14 09:40:14;;;;;;;6.32;3.72;;;18.20;71.50;;;;;;10488076;28;20060;-55
2021/10/14 09:45:30;;;;;;;7.15;3.80;;;18.20;71.30;;;;;;10502032;28;20035;-55
2021/10/14 09:50:40;;;;;;;6.38;3.70;;;18.20;71.40;;;;;;10511531;28;20057;-56
2021/10/14 09:55:42;;;;;;;7.18;4.00;;;18.20;71.60;;;;;;10500486;28;20088;-54
2021/10/14 10:00:45;;;;;;;8.13;4.00;;;18.10;71.60;;;;;;10501441;28;20380;-55
2021/10/14 10:05:51;;;;;;;8.27;4.28;;;18.10;71.80;;;;;;10501272;28;20039;-55
2021/10/14 10:10:53;;;;;;;9.05;4.40;;;18.00;71.90;;;;;;10500528;28;20024;-55
2021/10/14 10:15:54;;;;;;;12.52;4.30;;;18.00;72.00;;;;;;10499638;28;20166;-55
2021/10/14 10:21:06;;;;;;;6.70;3.92;;;18.10;71.80;;;;;;10500567;28;20162;-55
2021/10/14 10:26:33;;;;;;;7.95;4.28;;;18.20;71.60;;;;;;10500644;28;20037;-56
2021/10/14 10:31:48;;;;;;;7.22;4.28;;;18.20;71.60;;;;;;10500043;28;20029;-55
2021/10/14 10:36:51;;;;;;;7.18;3.88;;;18.20;71.80;;;;;;10512419;28;20059;-55
2021/10/14 10:41:52;;;;;;;7.95;4.18;;;18.10;71.80;;;;;;10499775;28;20078;-55
2021/10/14 10:46:52;;;;;;;8.43;4.45;;;18.20;71.80;;;;;;10498580;28;20411;-55
2021/10/14 10:51:53;;;;;;;8.45;4.85;;;18.20;71.70;;;;;;10504989;28;20099;-54
2021/10/14 10:56:54;;;;;;;8.70;4.47;;;18.30;71.60;;;;;;10497763;28;20016;-53
2021/10/14 11:01:54;;;;;;;8.82;4.45;;;18.30;71.40;;;;;;10499055;28;20029;-52
2021/10/14 11:06:55;;;;;;;10.93;3.85;;;18.30;71.50;;;;;;10498821;28;20120;-53
2021/10/14 11:12:05;;;;;;;6.68;4.32;;;18.30;71.60;;;;;;10498503;28;20465;-51
2021/10/14 11:17:13;;;;;;;6.78;3.97;;;18.20;71.70;;;;;;10498131;28;20028;-52
2021/10/14 11:22:18;;;;;;;6.97;4.40;;;18.20;71.80;;;;;;10496481;28;20036;-49
2021/10/14 11:27:20;;;;;;;7.53;4.30;;;18.20;72.00;;;;;;10496474;28;20409;-52
2021/10/14 11:32:32;;;;;;;6.70;4.18;;;18.10;72.10;;;;;;10496490;28;20108;-49
2021/10/14 11:37:32;;;;;;;7.28;3.92;;;18.10;72.20;;;;;;10509626;28;20037;-52
2021/10/14 11:42:34;;;;;;;4.70;3.72;;;18.00;72.40;;;;;;10496094;28;20056;-52
2021/10/14 11:47:34;;;;;;;5.72;4.07;;;18.00;72.50;;;;;;10472531;28;20024;-51
2021/10/14 11:52:35;;;;;;;7.18;4.10;;;18.00;72.70;;;;;;10497305;28;20060;-49
2021/10/14 11:57:37;;;;;;;6.28;3.97;;;18.00;72.70;;;;;;10496734;28;20024;-53
2021/10/14 12:02:43;;;;;;;8.77;4.68;;;18.00;72.80;;;;;;10495740;28;20033;-49
2021/10/14 12:07:44;;;;;;;5.68;4.25;;;17.90;72.90;;;;;;10495443;28;20035;-51
2021/10/14 12:12:45;;;;;;;4.88;3.95;;;17.90;72.90;;;;;;10481929;28;20069;-55
2021/10/14 12:17:47;;;;;;;5.32;3.92;;;17.90;73.10;;;;;;10496571;28;20471;-53
2021/10/14 12:22:54;;;;;;;6.35;3.95;;;17.90;73.20;;;;;;10494273;28;20229;-54
2021/10/14 12:27:57;;;;;;;5.68;3.20;;;17.90;72.80;;;;;;10497512;28;20029;-53
2021/10/14 12:33:19;;;;;;;8.80;4.28;;;18.10;72.80;;;;;;10500943;28;20028;-52
2021/10/14 12:38:20;;;;;;;8.13;3.58;;;18.10;72.40;;;;;;10516315;28;20048;-53
2021/10/14 12:43:27;;;;;;;4.85;3.08;;;18.10;72.50;;;;;;10503606;28;20028;-53
2021/10/14 12:53:55;;;;;;;6.07;4.32;;;18.10;72.80;;;;;;10506425;28;20473;-52
2021/10/14 12:59:05;;;;;;;8.20;3.92;;;18.00;73.10;;;;;;10503573;28;20365;-53
2021/10/14 13:04:07;;;;;;;9.77;5.95;;;18.00;73.30;;;;;;10503154;28;20441;-45
2021/10/14 13:09:08;;;;;;;127.13;68.05;;;18.00;73.50;;;;;;10502387;28;20047;-53
2021/10/14 13:14:13;;;;;;;703.20;536.40;;;18.20;83.50;;;;;;10502433;28;20023;-52
2021/10/14 13:19:15;;;;;;;159.98;110.57;;;18.20;80.20;;;;;;10497815;28;20033;-54
2021/10/14 13:24:17;;;;;;;151.77;103.70;;;18.10;78.80;;;;;;10501015;28;20020;-54
2021/10/14 13:29:18;;;;;;;113.47;79.93;;;18.10;78.70;;;;;;10499764;28;20066;-54
2021/10/14 13:34:19;;;;;;;80.40;57.28;;;18.20;76.00;;;;;;10506546;28;20472;-52
2021/10/14 13:39:19;;;;;;;71.05;49.08;;;18.30;74.40;;;;;;10508763;28;20050;-52
2021/10/14 13:44:26;;;;;;;56.10;36.25;;;18.30;73.80;;;;;;10500800;28;20052;-54
2021/10/14 13:49:27;;;;;;;45.30;30.55;;;18.30;73.30;;;;;;10503378;28;20477;-54
2021/10/14 13:54:28;;;;;;;37.95;26.35;;;18.30;73.00;;;;;;10492649;28;20039;-53
2021/10/14 13:59:29;;;;;;;37.33;23.83;;;18.40;72.60;;;;;;10497512;28;20037;-53
2021/10/14 14:04:30;;;;;;;32.67;21.40;;;18.40;72.30;;;;;;10499408;28;20103;-52
2021/10/14 14:09:32;;;;;;;33.42;19.33;;;18.50;72.10;;;;;;10496237;28;20064;-47
2021/10/14 14:14:32;;;;;;;28.90;17.55;;;18.50;72.10;;;;;;10500594;28;20021;-49
2021/10/14 14:19:33;;;;;;;29.90;17.08;;;18.50;72.20;;;;;;10501005;28;20028;-50
2021/10/14 14:24:34;;;;;;;29.08;17.65;;;18.50;72.50;;;;;;10500535;28;20102;-55
2021/10/14 14:29:34;;;;;;;21.65;14.43;;;18.40;72.50;;;;;;10500751;28;20135;-52
2021/10/14 14:34:35;;;;;;;20.65;15.57;;;18.40;72.60;;;;;;10499686;28;20029;-52
2021/10/14 14:39:38;;;;;;;21.55;13.13;;;18.30;72.80;;;;;;10499722;28;20128;-51
2021/10/14 14:44:39;;;;;;;24.65;13.50;;;18.30;72.80;;;;;;10500159;28;20108;-54
2021/10/14 14:49:40;;;;;;;25.27;13.15;;;18.20;72.90;;;;;;10505198;28;20448;-51
2021/10/14 14:54:41;;;;;;;19.00;13.05;;;18.20;73.00;;;;;;10498630;28;20111;-51
2021/10/14 14:59:41;;;;;;;16.33;11.20;;;18.20;73.10;;;;;;10497919;28;20567;-51
2021/10/14 15:04:43;;;;;;;18.38;11.68;;;18.10;73.10;;;;;;10497678;28;20102;-50
2021/10/14 15:09:43;;;;;;;16.45;12.00;;;18.10;73.10;;;;;;10498840;28;20600;-52
2021/10/14 15:14:44;;;;;;;16.70;10.80;;;18.10;73.20;;;;;;10487310;28;20024;-48
2021/10/14 15:19:45;;;;;;;16.75;11.77;;;18.00;73.20;;;;;;10498022;28;20052;-53
2021/10/14 15:24:45;;;;;;;15.88;9.77;;;18.00;73.40;;;;;;10498330;28;20024;-48
2021/10/14 15:29:46;;;;;;;12.13;9.55;;;18.10;73.40;;;;;;10496654;28;20112;-52
2021/10/14 15:34:48;;;;;;;15.63;9.80;;;18.10;73.40;;;;;;10495493;28;20063;-51
2021/10/14 15:39:51;;;;;;;15.23;9.63;;;18.00;73.40;;;;;;10488360;28;20423;-52
2021/10/14 15:44:52;;;;;;;15.18;8.95;;;18.00;73.30;;;;;;10496288;28;20518;-53
2021/10/14 15:49:54;;;;;;;12.77;8.90;;;18.00;73.40;;;;;;10496919;28;20415;-53
2021/10/14 15:54:55;;;;;;;12.75;8.25;;;18.00;73.40;;;;;;10497523;28;20036;-53
2021/10/14 15:59:56;;;;;;;14.55;8.30;;;18.00;73.40;;;;;;10497441;28;20119;-51
2021/10/14 16:04:56;;;;;;;14.60;8.63;;;18.00;73.60;;;;;;10496950;28;20107;-52
2021/10/14 16:09:57;;;;;;;18.25;8.93;;;18.00;73.70;;;;;;10495714;28;20132;-52
2021/10/14 16:14:58;;;;;;;14.27;8.15;;;17.90;73.50;;;;;;10494895;28;20055;-52
2021/10/14 16:19:59;;;;;;;22.77;8.40;;;18.10;73.30;;;;;;10495751;28;20029;-55
2021/10/14 16:24:59;;;;;;;17.85;8.10;;;18.30;73.50;;;;;;10496425;28;20029;-53
2021/10/14 16:30:00;;;;;;;18.63;7.57;;;18.60;73.20;;;;;;10496139;28;20060;-53
2021/10/14 16:35:01;;;;;;;15.60;7.10;;;18.70;73.10;;;;;;10495578;28;20428;-55
2021/10/14 16:40:03;;;;;;;18.15;6.90;;;18.80;72.90;;;;;;10496084;28;20044;-55
2021/10/14 16:45:05;;;;;;;21.92;7.97;;;18.80;72.90;;;;;;10494624;28;20024;-54
2021/10/14 16:50:10;;;;;;;12.23;6.88;;;18.70;73.20;;;;;;10509577;28;20094;-55
2021/10/14 16:55:12;;;;;;;18.75;7.50;;;18.70;74.00;;;;;;10495840;28;20036;-54
2021/10/14 17:00:17;;;;;;;15.27;7.43;;;18.70;73.50;;;;;;10496072;28;20020;-54
2021/10/14 17:05:18;;;;;;;17.73;6.88;;;18.70;73.40;;;;;;10494973;28;20043;-55
2021/10/14 17:10:21;;;;;;;13.63;6.75;;;18.60;73.30;;;;;;10495224;28;20477;-55
2021/10/14 17:15:21;;;;;;;14.55;7.30;;;18.50;73.60;;;;;;10496050;28;20032;-56
2021/10/14 17:41:38;;;;;;;10.30;5.77;;;18.20;74.10;;;;;;10501441;28;20041;-54
2021/10/14 17:46:53;;;;;;;9.80;5.65;;;18.30;74.20;;;;;;10502776;28;20461;-56
2021/10/14 17:51:54;;;;;;;15.23;6.68;;;18.40;73.60;;;;;;10490550;28;20032;-57
2021/10/14 17:56:55;;;;;;;12.55;5.82;;;18.40;73.60;;;;;;10502159;28;20029;-52
2021/10/14 18:01:56;;;;;;;10.30;5.45;;;18.50;73.60;;;;;;10491917;28;20032;-54
2021/10/14 18:07:14;;;;;;;8.18;5.65;;;18.40;73.80;;;;;;10500840;28;20392;-48
2021/10/14 18:38:48;;;;;;;9.35;6.47;;;18.40;74.40;;;;;;10496333;28;20040;-51
2021/10/14 18:43:50;;;;;;;12.65;6.93;;;18.40;74.50;;;;;;10499378;28;20059;-54
2021/10/14 18:48:55;;;;;;;24.35;6.78;;;18.40;74.50;;;;;;10500132;28;20438;-56
2021/10/14 18:53:56;;;;;;;10.70;6.03;;;18.40;74.60;;;;;;10481303;28;20024;-56
2021/10/14 18:59:05;;;;;;;11.25;7.20;;;18.30;74.60;;;;;;10499463;28;20029;-56
2021/10/14 19:04:12;;;;;;;12.80;6.60;;;18.30;74.60;;;;;;10499607;28;20032;-55
2021/10/14 19:09:26;;;;;;;9.07;5.93;;;18.40;74.80;;;;;;10499293;28;20036;-55
2021/10/14 19:14:40;;;;;;;10.10;6.03;;;18.30;74.70;;;;;;10499022;28;20233;-53
2021/10/14 20:22:56;;;;;;;8.70;4.80;;;17.90;74.90;;;;;;10491717;28;20036;-56
2021/10/14 20:27:57;;;;;;;8.23;4.60;;;17.90;74.90;;;;;;10497069;28;20044;-55
2021/10/14 20:32:58;;;;;;;10.10;5.43;;;17.80;74.80;;;;;;10494761;28;20060;-56
2021/10/14 20:38:00;;;;;;;8.13;5.35;;;17.80;74.80;;;;;;10489010;28;20040;-55
2021/10/14 20:43:01;;;;;;;6.70;4.45;;;17.80;74.80;;;;;;10495958;28;20481;-55
2021/10/14 20:48:02;;;;;;;8.18;4.78;;;17.80;74.80;;;;;;10496090;28;20032;-55
2021/10/14 20:53:10;;;;;;;7.03;5.25;;;17.80;74.80;;;;;;10506815;28;20090;-56
2021/10/14 21:03:29;;;;;;;7.47;4.90;;;17.80;74.70;;;;;;10504279;28;20028;-54
2021/10/14 21:08:31;;;;;;;7.07;5.10;;;17.70;74.60;;;;;;10504356;28;20512;-55
2021/10/14 21:13:32;;;;;;;6.25;4.60;;;17.70;74.60;;;;;;10480644;28;20029;-56
2021/10/14 21:18:32;;;;;;;6.63;4.90;;;17.70;74.60;;;;;;10497644;28;20170;-56
2021/10/14 21:23:35;;;;;;;8.73;4.90;;;17.70;74.50;;;;;;10502568;28;20112;-56
2021/10/14 21:28:45;;;;;;;6.75;4.57;;;17.70;74.50;;;;;;10502061;28;20039;-56
2021/10/14 21:39:05;;;;;;;6.83;4.50;;;17.70;74.40;;;;;;10491546;28;20135;-56
2021/10/14 21:44:06;;;;;;;8.02;4.82;;;17.70;74.40;;;;;;10490840;28;20291;-55
2021/10/14 21:49:07;;;;;;;5.95;4.20;;;17.70;74.40;;;;;;10509004;28;20027;-55
2021/10/14 21:54:07;;;;;;;6.57;4.60;;;17.60;75.00;;;;;;10502843;28;20391;-56
2021/10/14 21:59:08;;;;;;;7.13;4.63;;;17.60;74.30;;;;;;10502289;28;20039;-55
2021/10/14 22:04:09;;;;;;;5.05;4.07;;;17.60;74.30;;;;;;10501569;28;20060;-55
2021/10/14 22:09:11;;;;;;;5.50;4.25;;;17.60;74.30;;;;;;10500741;28;20400;-55
2021/10/14 22:14:12;;;;;;;5.15;4.43;;;17.60;74.20;;;;;;10501274;28;20024;-54
2021/10/14 22:19:13;;;;;;;6.68;4.35;;;17.60;74.20;;;;;;10501353;28;20032;-55
2021/10/14 22:24:14;;;;;;;7.00;4.35;;;17.60;74.20;;;;;;10501565;28;20071;-56
2021/10/14 22:29:14;;;;;;;5.72;3.80;;;17.60;74.20;;;;;;10500111;28;20048;-54
2021/10/14 22:34:15;;;;;;;5.07;3.92;;;17.60;74.20;;;;;;10500733;28;20438;-55
2021/10/14 22:39:16;;;;;;;7.47;4.57;;;17.60;74.20;;;;;;10500202;28;20124;-56
2021/10/14 22:44:16;;;;;;;5.38;3.92;;;17.60;74.10;;;;;;10489890;28;20469;-55
2021/10/14 22:49:17;;;;;;;6.03;3.83;;;17.50;74.10;;;;;;10511079;28;20039;-55
2021/10/14 22:54:18;;;;;;;5.07;3.85;;;17.60;74.20;;;;;;10500098;28;20033;-56
2021/10/14 22:59:19;;;;;;;5.20;4.22;;;17.50;74.10;;;;;;10499815;28;20037;-54
2021/10/14 23:04:19;;;;;;;5.40;4.13;;;17.50;74.10;;;;;;10499505;28;20536;-56
2021/10/14 23:09:20;;;;;;;6.60;3.78;;;17.50;74.10;;;;;;10481473;28;20107;-56
2021/10/14 23:14:21;;;;;;;5.70;4.57;;;17.50;74.00;;;;;;10486842;28;20119;-54
2021/10/14 23:19:21;;;;;;;5.45;3.97;;;17.50;74.10;;;;;;10497061;28;20040;-55
2021/10/14 23:24:22;;;;;;;4.50;3.28;;;17.50;74.10;;;;;;10498855;28;20376;-55
2021/10/14 23:29:23;;;;;;;4.78;3.65;;;17.50;74.00;;;;;;10498835;28;20400;-56
2021/10/14 23:34:23;;;;;;;5.60;4.28;;;17.50;74.00;;;;;;10498606;28;20063;-55
2021/10/14 23:39:24;;;;;;;5.50;3.75;;;17.50;74.00;;;;;;10497667;28;20040;-55
2021/10/14 23:44:25;;;;;;;5.63;3.80;;;17.50;74.00;;;;;;10498162;28;20024;-56
2021/10/14 23:49:26;;;;;;;4.93;3.78;;;17.50;74.00;;;;;;10508832;28;20036;-56
2021/10/14 23:54:26;;;;;;;4.53;3.22;;;17.50;74.00;;;;;;10497471;28;20461;-55
2021/10/14 23:59:27;;;;;;;6.35;4.32;;;17.50;74.00;;;;;;10497607;28;20433;-54
